createdAt,value
2023-05-22T00:01:17.676Z,45.97
2023-05-22T00:03:44.265Z,45.65
2023-05-22T00:06:10.831Z,45.79
2023-05-22T00:08:37.430Z,46.08
2023-05-22T00:11:04.030Z,46.13
2023-05-22T00:13:30.548Z,45.82
2023-05-22T00:15:57.070Z,45.72
2023-05-22T00:18:23.600Z,45.96
2023-05-22T00:20:50.168Z,45.99
2023-05-22T00:23:17.776Z,45.74
2023-05-22T00:25:44.318Z,45.88
2023-05-22T00:28:10.825Z,45.85
2023-05-22T00:30:37.399Z,46.03
2023-05-22T00:33:04.153Z,46.34
2023-05-22T00:35:30.751Z,45.90
2023-05-22T00:37:57.314Z,45.98
2023-05-22T00:40:23.791Z,45.94
2023-05-22T00:42:50.260Z,45.73
2023-05-22T00:45:16.725Z,45.90
2023-05-22T00:47:43.333Z,46.04
2023-05-22T00:50:09.827Z,46.04
2023-05-22T00:52:36.474Z,45.82
2023-05-22T00:55:02.991Z,45.83
2023-05-22T00:57:29.520Z,45.99
2023-05-22T00:59:56.053Z,46.30
2023-05-22T01:02:22.581Z,46.27
2023-05-22T01:04:49.119Z,45.83
2023-05-22T01:07:15.677Z,45.89
2023-05-22T01:09:42.277Z,46.02
2023-05-22T01:12:08.792Z,45.73
2023-05-22T01:14:35.425Z,45.94
2023-05-22T01:17:01.992Z,45.86
2023-05-22T01:19:28.601Z,46.16
2023-05-22T01:21:55.178Z,46.04
2023-05-22T01:24:21.861Z,45.84
2023-05-22T01:26:48.418Z,45.83
2023-05-22T01:29:15.139Z,45.76
2023-05-22T01:31:41.596Z,45.80
2023-05-22T01:34:08.153Z,46.18
2023-05-22T01:36:34.730Z,45.99
2023-05-22T01:39:01.306Z,46.00
2023-05-22T01:41:30.643Z,46.13
2023-05-22T01:43:57.156Z,45.77
2023-05-22T01:46:23.730Z,45.99
2023-05-22T01:48:50.339Z,45.88
2023-05-22T01:51:16.951Z,45.92
2023-05-22T01:53:43.457Z,46.05
2023-05-22T01:56:10.001Z,45.80
2023-05-22T01:58:36.549Z,46.18
2023-05-22T02:01:03.157Z,45.68
2023-05-22T02:03:29.866Z,46.17
2023-05-22T02:05:56.427Z,46.06
2023-05-22T02:08:23.032Z,45.82
2023-05-22T02:10:49.549Z,45.99
2023-05-22T02:13:16.032Z,46.06
2023-05-22T02:15:42.686Z,46.32
2023-05-22T02:18:09.381Z,46.15
2023-05-22T02:20:35.954Z,45.78
2023-05-22T02:23:02.487Z,45.91
2023-05-22T02:25:29.100Z,46.15
2023-05-22T02:27:55.588Z,45.77
2023-05-22T02:30:22.128Z,46.02
2023-05-22T02:32:48.657Z,45.55
2023-05-22T02:35:15.287Z,46.00
2023-05-22T02:37:41.892Z,45.90
2023-05-22T02:40:08.492Z,45.91
2023-05-22T02:42:35.027Z,45.92
2023-05-22T02:45:01.549Z,45.78
2023-05-22T02:47:28.100Z,45.76
2023-05-22T02:49:54.895Z,46.07
2023-05-22T02:52:21.466Z,45.75
2023-05-22T02:54:48.065Z,45.76
2023-05-22T02:57:14.610Z,46.03
2023-05-22T02:59:41.148Z,45.96
2023-05-22T03:02:07.938Z,45.49
2023-05-22T03:04:34.647Z,45.68
2023-05-22T03:07:01.189Z,45.96
2023-05-22T03:09:27.693Z,45.95
2023-05-22T03:11:54.249Z,46.44
2023-05-22T03:14:20.761Z,45.75
2023-05-22T03:16:47.487Z,45.43
2023-05-22T03:19:14.199Z,45.69
2023-05-22T03:21:40.776Z,45.76
2023-05-22T03:24:07.403Z,45.52
2023-05-22T03:26:33.962Z,45.49
2023-05-22T03:29:00.513Z,45.88
2023-05-22T03:31:27.076Z,45.48
2023-05-22T03:33:53.663Z,45.59
2023-05-22T03:36:20.276Z,45.76
2023-05-22T03:38:46.809Z,45.55
2023-05-22T03:41:13.366Z,45.58
2023-05-22T03:43:41.131Z,45.67
2023-05-22T03:46:09.259Z,45.27
2023-05-22T03:48:35.833Z,45.50
2023-05-22T03:51:02.425Z,45.24
2023-05-22T03:53:28.902Z,45.42
2023-05-22T03:55:55.463Z,45.26
2023-05-22T03:58:22.021Z,45.41
2023-05-22T04:00:48.592Z,45.24
2023-05-22T04:03:15.330Z,45.38
2023-05-22T04:05:42.074Z,45.58
2023-05-22T04:08:08.671Z,45.56
2023-05-22T04:10:35.283Z,45.38
2023-05-22T04:13:01.818Z,45.33
2023-05-22T04:15:28.307Z,45.25
2023-05-22T04:17:54.963Z,45.19
2023-05-22T04:20:21.634Z,45.20
2023-05-22T04:22:48.161Z,45.20
2023-05-22T04:25:14.736Z,45.21
2023-05-22T04:27:41.389Z,45.42
2023-05-22T04:30:07.861Z,45.46
2023-05-22T04:32:34.313Z,45.12
2023-05-22T04:35:00.971Z,45.05
2023-05-22T04:37:27.481Z,45.13
2023-05-22T04:39:56.755Z,45.18
2023-05-22T04:42:23.355Z,45.31
2023-05-22T04:44:49.900Z,45.09
2023-05-22T04:47:16.428Z,45.40
2023-05-22T04:49:42.955Z,45.87
2023-05-22T04:52:09.538Z,45.87
2023-05-22T04:54:36.134Z,46.07
2023-05-22T04:57:02.659Z,45.79
2023-05-22T04:59:29.129Z,46.28
2023-05-22T05:01:55.635Z,46.47
2023-05-22T05:04:22.241Z,46.52
2023-05-22T05:06:48.698Z,46.53
2023-05-22T05:09:15.329Z,47.40
2023-05-22T05:11:41.888Z,46.79
2023-05-22T05:14:08.370Z,47.00
2023-05-22T05:16:34.917Z,46.74
2023-05-22T05:19:01.548Z,46.90
2023-05-22T05:21:28.278Z,46.55
2023-05-22T05:23:54.866Z,46.88
2023-05-22T05:26:21.422Z,46.83
2023-05-22T05:28:47.939Z,46.61
2023-05-22T05:31:14.483Z,46.42
2023-05-22T05:33:41.176Z,46.28
2023-05-22T05:36:07.924Z,46.23
2023-05-22T05:38:34.514Z,46.55
2023-05-22T05:41:01.075Z,46.81
2023-05-22T05:43:27.705Z,46.62
2023-05-22T05:45:54.340Z,47.06
2023-05-22T05:48:20.919Z,47.27
2023-05-22T05:50:47.448Z,47.52
2023-05-22T05:53:13.962Z,48.44
2023-05-22T05:55:40.487Z,48.81
2023-05-22T05:58:07.067Z,49.82
2023-05-22T06:00:33.681Z,50.77
2023-05-22T06:03:00.298Z,51.32
2023-05-22T06:05:27.067Z,51.46
2023-05-22T06:07:53.720Z,51.23
2023-05-22T06:10:20.232Z,50.63
2023-05-22T06:12:46.754Z,51.34
2023-05-22T06:15:13.309Z,50.82
2023-05-22T06:17:39.964Z,50.46
2023-05-22T06:20:06.661Z,50.57
2023-05-22T06:22:33.208Z,50.66
2023-05-22T06:24:59.791Z,50.42
2023-05-22T06:27:26.238Z,50.40
2023-05-22T06:29:52.767Z,50.00
2023-05-22T06:32:19.378Z,49.78
2023-05-22T06:34:45.847Z,50.00
2023-05-22T06:37:12.400Z,50.44
2023-05-22T06:39:38.879Z,50.69
2023-05-22T06:42:05.432Z,50.52
2023-05-22T06:44:32.012Z,50.40
2023-05-22T06:46:58.686Z,50.27
2023-05-22T06:49:25.384Z,50.63
2023-05-22T06:51:51.953Z,50.39
2023-05-22T06:54:18.479Z,49.86
2023-05-22T06:56:45.049Z,50.17
2023-05-22T06:59:11.654Z,50.09
2023-05-22T07:01:38.233Z,50.13
2023-05-22T07:04:04.837Z,50.22
2023-05-22T07:06:31.350Z,50.97
2023-05-22T07:08:57.922Z,51.29
2023-05-22T07:11:24.425Z,51.21
2023-05-22T07:13:50.965Z,51.06
2023-05-22T07:16:17.522Z,51.33
2023-05-22T07:18:44.152Z,51.43
2023-05-22T07:21:10.696Z,51.91
2023-05-22T07:23:37.293Z,52.37
2023-05-22T07:26:03.886Z,52.44
2023-05-22T07:28:30.467Z,53.37
2023-05-22T07:30:57.028Z,52.90
2023-05-22T07:33:23.627Z,53.46
2023-05-22T07:35:50.134Z,53.39
2023-05-22T07:38:16.671Z,53.41
2023-05-22T07:40:43.205Z,53.02
2023-05-22T07:43:09.774Z,53.20
2023-05-22T07:45:36.309Z,53.20
2023-05-22T07:48:02.791Z,53.00
2023-05-22T07:50:29.397Z,52.69
2023-05-22T07:52:56.052Z,52.88
2023-05-22T07:55:22.654Z,52.80
2023-05-22T07:57:49.296Z,52.86
2023-05-22T08:00:15.917Z,52.50
2023-05-22T08:02:42.523Z,52.75
2023-05-22T08:05:09.360Z,52.33
2023-05-22T08:07:36.041Z,51.81
2023-05-22T08:10:02.595Z,52.33
2023-05-22T08:12:29.203Z,51.95
2023-05-22T08:14:55.753Z,51.66
2023-05-22T08:17:22.468Z,51.46
2023-05-22T08:19:49.209Z,51.54
2023-05-22T08:22:15.809Z,51.26
2023-05-22T08:24:42.344Z,51.53
2023-05-22T08:27:08.945Z,51.28
2023-05-22T08:29:35.612Z,51.08
2023-05-22T08:32:02.275Z,51.02
2023-05-22T08:34:28.922Z,50.80
2023-05-22T08:36:55.472Z,50.98
2023-05-22T08:39:22.013Z,50.77
2023-05-22T08:41:48.596Z,50.48
2023-05-22T08:44:15.175Z,50.57
2023-05-22T08:46:41.742Z,50.17
2023-05-22T08:49:08.443Z,50.11
2023-05-22T08:51:35.056Z,49.61
2023-05-22T08:54:01.582Z,49.37
2023-05-22T08:56:29.473Z,48.79
2023-05-22T08:58:56.297Z,48.70
2023-05-22T09:01:22.975Z,48.50
2023-05-22T09:03:49.505Z,48.32
2023-05-22T09:06:15.996Z,47.89
2023-05-22T09:08:42.534Z,48.71
2023-05-22T09:11:09.036Z,48.92
2023-05-22T09:13:35.571Z,49.29
2023-05-22T09:16:02.134Z,49.74
2023-05-22T09:18:28.684Z,49.05
2023-05-22T09:20:55.189Z,48.94
2023-05-22T09:23:21.656Z,48.87
2023-05-22T09:25:48.125Z,48.66
2023-05-22T09:28:14.658Z,48.91
2023-05-22T09:30:41.330Z,48.78
2023-05-22T09:33:11.134Z,48.09
2023-05-22T09:35:37.646Z,48.36
2023-05-22T09:38:04.186Z,48.23
2023-05-22T09:40:30.678Z,48.41
2023-05-22T09:42:57.208Z,48.17
2023-05-22T09:45:23.707Z,48.52
2023-05-22T09:47:50.291Z,48.27
2023-05-22T09:50:16.799Z,48.82
2023-05-22T09:52:43.291Z,48.83
2023-05-22T09:55:09.771Z,48.69
2023-05-22T09:57:36.307Z,48.67
2023-05-22T10:00:02.840Z,48.47
2023-05-22T10:02:29.513Z,48.64
2023-05-22T10:04:56.189Z,48.29
2023-05-22T10:07:22.761Z,48.08
2023-05-22T10:09:49.311Z,48.15
2023-05-22T10:12:15.976Z,48.26
2023-05-22T10:14:42.570Z,47.93
2023-05-22T10:17:11.512Z,47.99
2023-05-22T10:19:40.466Z,47.99
2023-05-22T10:22:08.338Z,48.06
2023-05-22T10:24:34.951Z,47.37
2023-05-22T10:27:01.734Z,47.30
2023-05-22T10:29:31.439Z,47.23
2023-05-22T10:31:57.967Z,46.99
2023-05-22T10:34:24.507Z,47.23
2023-05-22T10:36:51.088Z,47.07
2023-05-22T10:39:17.562Z,47.07
2023-05-22T10:41:44.122Z,47.17
2023-05-22T10:44:10.650Z,46.87
2023-05-22T10:46:37.291Z,47.44
2023-05-22T10:49:03.840Z,47.03
2023-05-22T10:51:30.654Z,46.92
2023-05-22T10:53:57.256Z,47.13
2023-05-22T10:56:25.442Z,47.10
2023-05-22T10:58:52.443Z,47.19
2023-05-22T11:01:19.015Z,46.95
2023-05-22T11:03:45.663Z,46.77
2023-05-22T11:06:12.319Z,47.16
2023-05-22T11:08:38.919Z,46.75
2023-05-22T11:11:05.447Z,46.88
2023-05-22T11:13:32.022Z,46.96
2023-05-22T11:15:58.634Z,47.02
2023-05-22T11:18:25.248Z,46.79
2023-05-22T11:20:51.792Z,46.62
2023-05-22T11:23:18.386Z,46.71
2023-05-22T11:25:44.967Z,46.61
2023-05-22T11:28:11.582Z,46.70
2023-05-22T11:30:38.774Z,46.73
2023-05-22T11:33:05.520Z,46.52
2023-05-22T11:35:32.147Z,46.71
2023-05-22T11:37:58.800Z,46.53
2023-05-22T11:40:25.382Z,46.59
2023-05-22T11:42:51.902Z,46.36
2023-05-22T11:45:18.444Z,46.43
2023-05-22T11:47:45.075Z,46.12
2023-05-22T11:50:11.670Z,45.96
2023-05-22T11:52:38.281Z,45.93
2023-05-22T11:55:04.850Z,46.11
2023-05-22T11:57:31.392Z,45.90
2023-05-22T11:59:57.974Z,45.70
2023-05-22T12:02:24.601Z,45.79
2023-05-22T12:04:51.181Z,45.64
2023-05-22T12:07:17.801Z,45.58
2023-05-22T12:09:44.381Z,45.61
2023-05-22T12:12:10.956Z,45.61
2023-05-22T12:14:37.541Z,45.63
2023-05-22T12:17:04.135Z,45.42
2023-05-22T12:19:30.794Z,45.63
2023-05-22T12:21:57.495Z,45.53
2023-05-22T12:24:24.118Z,45.47
2023-05-22T12:26:50.635Z,45.49
2023-05-22T12:29:17.205Z,45.65
2023-05-22T12:31:43.737Z,45.47
2023-05-22T12:34:10.472Z,45.41
2023-05-22T12:36:37.040Z,45.35
2023-05-22T12:39:03.645Z,45.34
2023-05-22T12:41:30.221Z,45.12
2023-05-22T12:43:56.862Z,45.11
2023-05-22T12:46:23.485Z,44.93
2023-05-22T12:48:50.116Z,45.00
2023-05-22T12:51:18.653Z,44.98
2023-05-22T12:53:46.536Z,44.90
2023-05-22T12:56:13.124Z,44.83
2023-05-22T12:58:39.726Z,44.53
2023-05-22T13:01:06.383Z,44.58
2023-05-22T13:03:32.963Z,44.58
2023-05-22T13:05:59.541Z,44.82
2023-05-22T13:08:26.078Z,44.37
2023-05-22T13:10:52.542Z,44.36
2023-05-22T13:13:19.133Z,44.30
2023-05-22T13:15:45.805Z,44.15
2023-05-22T13:18:12.425Z,44.07
2023-05-22T13:20:39.082Z,44.13
2023-05-22T13:23:05.642Z,44.16
2023-05-22T13:25:32.204Z,44.02
2023-05-22T13:27:58.771Z,43.75
2023-05-22T13:30:25.414Z,44.01
2023-05-22T13:32:51.980Z,43.83
2023-05-22T13:35:18.567Z,43.83
2023-05-22T13:37:45.240Z,43.57
2023-05-22T13:40:11.840Z,43.71
2023-05-22T13:42:38.514Z,43.65
2023-05-22T13:45:05.077Z,43.69
2023-05-22T13:47:31.721Z,43.50
2023-05-22T13:49:58.436Z,43.72
2023-05-22T13:52:25.030Z,43.77
2023-05-22T13:54:51.655Z,43.75
2023-05-22T13:57:18.171Z,43.56
2023-05-22T13:59:44.764Z,43.28
2023-05-22T14:02:11.384Z,43.50
2023-05-22T14:04:38.043Z,43.06
2023-05-22T14:07:04.592Z,42.91
2023-05-22T14:09:31.108Z,43.19
2023-05-22T14:11:57.663Z,43.47
2023-05-22T14:14:24.695Z,43.96
2023-05-22T14:16:51.449Z,43.92
2023-05-22T14:19:18.141Z,44.05
2023-05-22T14:21:44.682Z,44.06
2023-05-22T14:24:11.230Z,44.01
2023-05-22T14:26:37.855Z,44.15
2023-05-22T14:29:04.592Z,44.21
2023-05-22T14:31:31.305Z,44.06
2023-05-22T14:33:57.885Z,44.26
2023-05-22T14:36:24.434Z,44.35
2023-05-22T14:38:51.033Z,44.32
2023-05-22T14:41:17.627Z,44.28
2023-05-22T14:43:44.189Z,44.20
2023-05-22T14:46:10.867Z,44.30
2023-05-22T14:48:37.461Z,44.29
2023-05-22T14:51:04.097Z,44.32
2023-05-22T14:53:30.733Z,44.33
2023-05-22T14:55:57.338Z,44.10
2023-05-22T14:58:23.937Z,44.19
2023-05-22T15:00:50.527Z,44.29
2023-05-22T15:03:17.195Z,44.24
2023-05-22T15:05:43.752Z,44.35
2023-05-22T15:08:10.362Z,44.08
2023-05-22T15:10:36.861Z,43.95
2023-05-22T15:13:03.401Z,43.91
2023-05-22T15:15:29.930Z,44.07
2023-05-22T15:17:56.534Z,44.00
2023-05-22T15:20:23.052Z,43.94
2023-05-22T15:22:49.541Z,43.77
2023-05-22T15:25:16.167Z,43.95
2023-05-22T15:27:42.773Z,43.93
2023-05-22T15:30:09.384Z,43.94
2023-05-22T15:32:35.922Z,43.53
2023-05-22T15:35:02.496Z,43.21
2023-05-22T15:37:30.278Z,43.49
2023-05-22T15:39:58.672Z,43.41
2023-05-22T15:42:25.301Z,43.29
2023-05-22T15:44:51.880Z,43.10
2023-05-22T15:47:18.553Z,43.32
2023-05-22T15:49:45.117Z,43.27
2023-05-22T15:52:11.722Z,43.15
2023-05-22T15:54:38.223Z,43.23
2023-05-22T15:57:05.972Z,43.27
2023-05-22T15:59:34.614Z,43.07
2023-05-22T16:02:01.075Z,42.94
2023-05-22T16:04:27.631Z,42.85
2023-05-22T16:06:54.260Z,42.79
2023-05-22T16:09:20.824Z,42.77
2023-05-22T16:11:47.337Z,42.58
2023-05-22T16:14:13.989Z,42.23
2023-05-22T16:16:40.600Z,42.16
2023-05-22T16:19:07.301Z,41.44
2023-05-22T16:21:33.850Z,41.34
2023-05-22T16:24:00.461Z,40.93
2023-05-22T16:26:27.047Z,40.72
2023-05-22T16:28:53.565Z,40.48
2023-05-22T16:31:20.168Z,39.32
2023-05-22T16:33:46.791Z,40.73
2023-05-22T16:36:13.413Z,41.63
2023-05-22T16:38:40.032Z,42.04
2023-05-22T16:41:06.611Z,42.38
2023-05-22T16:43:33.150Z,42.61
2023-05-22T16:45:59.718Z,42.77
2023-05-22T16:48:29.096Z,43.00
2023-05-22T16:50:55.712Z,43.16
2023-05-22T16:53:22.326Z,43.14
2023-05-22T16:55:48.964Z,43.02
2023-05-22T16:58:15.565Z,43.33
2023-05-22T17:00:42.393Z,43.18
2023-05-22T17:03:09.803Z,43.33
2023-05-22T17:05:36.821Z,43.23
2023-05-22T17:08:03.417Z,43.40
2023-05-22T17:10:30.063Z,43.16
2023-05-22T17:12:56.703Z,43.14
2023-05-22T17:15:23.244Z,43.13
2023-05-22T17:17:49.933Z,43.13
2023-05-22T17:20:16.498Z,43.24
2023-05-22T17:22:43.083Z,43.24
2023-05-22T17:25:09.544Z,43.32
2023-05-22T17:27:36.998Z,43.12
2023-05-22T17:30:03.619Z,43.24
2023-05-22T17:32:30.260Z,43.56
2023-05-22T17:34:56.855Z,43.29
2023-05-22T17:37:23.328Z,43.24
2023-05-22T17:39:49.868Z,43.40
2023-05-22T17:42:16.361Z,43.69
2023-05-22T17:44:42.876Z,43.68
2023-05-22T17:47:09.423Z,43.64
2023-05-22T17:49:35.901Z,43.46
2023-05-22T17:52:02.372Z,43.73
2023-05-22T17:54:28.883Z,43.79
2023-05-22T17:56:55.369Z,43.80
2023-05-22T17:59:21.932Z,43.84
2023-05-22T18:01:48.514Z,43.85
2023-05-22T18:04:15.038Z,44.05
2023-05-22T18:06:41.556Z,44.43
2023-05-22T18:09:08.142Z,44.17
2023-05-22T18:11:34.621Z,44.31
2023-05-22T18:14:01.162Z,44.16
2023-05-22T18:16:27.758Z,44.35
2023-05-22T18:18:54.560Z,44.40
2023-05-22T18:21:21.170Z,44.21
2023-05-22T18:23:47.666Z,44.50
2023-05-22T18:26:14.159Z,44.55
2023-05-22T18:28:40.638Z,44.82
2023-05-22T18:31:07.168Z,44.71
2023-05-22T18:33:33.715Z,44.65
2023-05-22T18:36:00.207Z,44.83
2023-05-22T18:38:26.817Z,44.89
2023-05-22T18:40:53.336Z,44.94
2023-05-22T18:43:19.921Z,45.17
2023-05-22T18:45:46.466Z,45.07
2023-05-22T18:48:13.101Z,45.10
2023-05-22T18:50:39.978Z,45.22
2023-05-22T18:53:06.587Z,45.24
2023-05-22T18:55:33.128Z,45.33
2023-05-22T18:57:59.720Z,45.24
2023-05-22T19:00:26.362Z,45.26
2023-05-22T19:02:52.933Z,45.45
2023-05-22T19:05:19.457Z,45.20
2023-05-22T19:07:45.951Z,45.36
2023-05-22T19:10:12.529Z,45.39
2023-05-22T19:12:39.108Z,45.31
2023-05-22T19:15:05.622Z,45.29
2023-05-22T19:17:32.180Z,45.42
2023-05-22T19:19:58.768Z,45.54
2023-05-22T19:22:25.292Z,45.44
2023-05-22T19:24:51.885Z,45.24
2023-05-22T19:27:18.460Z,45.54
2023-05-22T19:29:45.057Z,45.32
2023-05-22T19:32:11.608Z,45.53
2023-05-22T19:34:38.165Z,45.56
2023-05-22T19:37:04.861Z,45.64
2023-05-22T19:39:31.698Z,45.39
2023-05-22T19:41:58.322Z,45.31
2023-05-22T19:44:24.955Z,45.45
2023-05-22T19:46:51.706Z,45.60
2023-05-22T19:49:18.282Z,45.32
2023-05-22T19:51:44.904Z,45.49
2023-05-22T19:54:11.525Z,45.60
2023-05-22T19:56:38.027Z,45.29
2023-05-22T19:59:04.641Z,45.47
2023-05-22T20:01:31.207Z,45.88
2023-05-22T20:03:57.897Z,46.05
2023-05-22T20:06:24.471Z,45.78
2023-05-22T20:08:51.106Z,45.99
2023-05-22T20:11:17.702Z,46.81
2023-05-22T20:13:44.291Z,46.97
2023-05-22T20:16:10.913Z,46.93
2023-05-22T20:18:37.464Z,46.47
2023-05-22T20:21:05.745Z,47.04
2023-05-22T20:23:32.218Z,46.78
2023-05-22T20:25:58.728Z,46.51
2023-05-22T20:28:25.160Z,46.53
2023-05-22T20:30:51.693Z,46.47
2023-05-22T20:33:18.295Z,46.99
2023-05-22T20:35:44.947Z,46.83
2023-05-22T20:38:11.633Z,47.02
2023-05-22T20:40:38.148Z,47.11
2023-05-22T20:43:04.703Z,48.74
2023-05-22T20:45:31.259Z,48.27
2023-05-22T20:47:57.927Z,49.44
2023-05-22T20:50:24.556Z,47.99
2023-05-22T20:52:51.085Z,49.30
2023-05-22T20:55:17.700Z,49.18
2023-05-22T20:57:44.246Z,50.02
2023-05-22T21:00:10.797Z,50.78
2023-05-22T21:02:37.393Z,50.12
2023-05-22T21:05:04.064Z,50.78
2023-05-22T21:07:30.568Z,51.01
2023-05-22T21:09:57.211Z,51.04
2023-05-22T21:12:23.767Z,50.77
2023-05-22T21:14:50.509Z,50.67
2023-05-22T21:17:17.102Z,50.54
2023-05-22T21:19:43.760Z,50.26
2023-05-22T21:22:10.313Z,50.05
2023-05-22T21:24:36.871Z,49.91
2023-05-22T21:27:03.406Z,50.13
2023-05-22T21:29:29.942Z,49.77
2023-05-22T21:31:56.568Z,49.67
2023-05-22T21:34:23.188Z,50.06
2023-05-22T21:36:49.756Z,49.82
2023-05-22T21:39:16.261Z,49.54
2023-05-22T21:41:42.851Z,49.70
2023-05-22T21:44:09.518Z,49.76
2023-05-22T21:46:36.110Z,49.77
2023-05-22T21:49:02.704Z,49.65
2023-05-22T21:51:29.369Z,49.74
2023-05-22T21:53:55.846Z,50.00
2023-05-22T21:56:22.432Z,49.54
2023-05-22T21:58:48.965Z,49.50
2023-05-22T22:01:15.518Z,49.87
2023-05-22T22:03:42.234Z,49.76
2023-05-22T22:06:08.859Z,49.67
2023-05-22T22:08:35.557Z,49.92
2023-05-22T22:11:02.157Z,50.00
2023-05-22T22:13:28.676Z,49.92
2023-05-22T22:15:55.225Z,50.33
2023-05-22T22:18:21.759Z,49.82
2023-05-22T22:20:48.470Z,50.49
2023-05-22T22:23:15.207Z,49.78
2023-05-22T22:25:41.758Z,50.18
2023-05-22T22:28:08.218Z,50.08
2023-05-22T22:30:34.761Z,50.40
2023-05-22T22:33:01.448Z,50.11
2023-05-22T22:35:28.128Z,50.71
2023-05-22T22:37:54.724Z,50.50
2023-05-22T22:40:21.244Z,50.39
2023-05-22T22:42:47.784Z,50.55
2023-05-22T22:45:14.284Z,50.85
2023-05-22T22:47:40.847Z,50.26
2023-05-22T22:50:07.506Z,50.31
2023-05-22T22:52:34.126Z,50.49
2023-05-22T22:55:01.780Z,50.45
2023-05-22T22:57:28.470Z,50.14
2023-05-22T22:59:55.007Z,50.35
2023-05-22T23:02:21.640Z,50.24
2023-05-22T23:04:48.399Z,50.62
2023-05-22T23:07:14.995Z,50.58
2023-05-22T23:09:41.475Z,50.33
2023-05-22T23:12:07.980Z,50.14
2023-05-22T23:14:34.496Z,50.47
2023-05-22T23:17:01.064Z,50.53
2023-05-22T23:19:27.703Z,50.55
2023-05-22T23:21:54.297Z,50.41
2023-05-22T23:24:20.872Z,50.10
2023-05-22T23:26:50.214Z,50.53
2023-05-22T23:29:16.832Z,50.43
2023-05-22T23:31:43.518Z,50.53
2023-05-22T23:34:10.164Z,50.37
2023-05-22T23:36:36.696Z,50.26
2023-05-22T23:39:03.266Z,50.07
2023-05-22T23:41:29.867Z,50.02
2023-05-22T23:43:56.465Z,50.69
2023-05-22T23:46:23.049Z,50.24
2023-05-22T23:48:49.593Z,50.70
2023-05-22T23:51:16.110Z,50.34
2023-05-22T23:53:42.679Z,50.57
2023-05-22T23:56:09.211Z,50.29
2023-05-22T23:58:35.794Z,50.65
